sensor_id;sensor_type;location;lat;lon;timestamp;P1;durP1;ratioP1;P2;durP2;ratioP2
40116;SDS011;25829;50.228;18.936;2023-07-20T00:00:46;7.57;;;4.53;;
40116;SDS011;25829;50.228;18.936;2023-07-20T00:03:47;5.15;;;4.20;;
40116;SDS011;25829;50.228;18.936;2023-07-20T00:06:54;6.50;;;4.38;;
40116;SDS011;25829;50.228;18.936;2023-07-20T00:09:55;5.07;;;3.72;;
40116;SDS011;25829;50.228;18.936;2023-07-20T00:12:56;6.70;;;4.00;;
40116;SDS011;25829;50.228;18.936;2023-07-20T00:15:56;5.25;;;3.88;;
40116;SDS011;25829;50.228;18.936;2023-07-20T00:18:57;6.07;;;3.88;;
40116;SDS011;25829;50.228;18.936;2023-07-20T00:21:58;7.13;;;3.80;;
40116;SDS011;25829;50.228;18.936;2023-07-20T00:24:59;6.93;;;3.97;;
40116;SDS011;25829;50.228;18.936;2023-07-20T00:28:00;9.30;;;3.60;;
40116;SDS011;25829;50.228;18.936;2023-07-20T00:31:01;6.60;;;3.45;;
40116;SDS011;25829;50.228;18.936;2023-07-20T00:34:04;4.50;;;3.50;;
40116;SDS011;25829;50.228;18.936;2023-07-20T00:37:05;6.68;;;3.47;;
40116;SDS011;25829;50.228;18.936;2023-07-20T00:40:05;4.82;;;3.28;;
40116;SDS011;25829;50.228;18.936;2023-07-20T00:43:10;6.70;;;3.30;;
40116;SDS011;25829;50.228;18.936;2023-07-20T00:46:11;8.23;;;3.70;;
40116;SDS011;25829;50.228;18.936;2023-07-20T00:49:13;8.25;;;3.88;;
40116;SDS011;25829;50.228;18.936;2023-07-20T00:52:14;3.15;;;2.70;;
40116;SDS011;25829;50.228;18.936;2023-07-20T00:55:17;5.03;;;2.47;;
40116;SDS011;25829;50.228;18.936;2023-07-20T00:58:19;7.25;;;3.85;;
40116;SDS011;25829;50.228;18.936;2023-07-20T01:01:21;6.57;;;2.85;;
40116;SDS011;25829;50.228;18.936;2023-07-20T01:04:22;3.10;;;2.80;;
40116;SDS011;25829;50.228;18.936;2023-07-20T01:07:25;3.67;;;2.55;;
40116;SDS011;25829;50.228;18.936;2023-07-20T01:10:43;3.90;;;2.50;;
40116;SDS011;25829;50.228;18.936;2023-07-20T01:13:50;6.03;;;2.90;;
40116;SDS011;25829;50.228;18.936;2023-07-20T01:16:51;3.15;;;2.85;;
40116;SDS011;25829;50.228;18.936;2023-07-20T01:19:54;3.80;;;2.75;;
40116;SDS011;25829;50.228;18.936;2023-07-20T01:33:38;4.93;;;3.10;;
40116;SDS011;25829;50.228;18.936;2023-07-20T01:36:42;3.45;;;2.63;;
40116;SDS011;25829;50.228;18.936;2023-07-20T01:39:44;5.10;;;2.42;;
40116;SDS011;25829;50.228;18.936;2023-07-20T01:42:45;6.43;;;2.90;;
40116;SDS011;25829;50.228;18.936;2023-07-20T01:45:47;3.17;;;2.80;;
40116;SDS011;25829;50.228;18.936;2023-07-20T01:48:47;6.55;;;2.80;;
40116;SDS011;25829;50.228;18.936;2023-07-20T01:51:48;4.05;;;3.05;;
40116;SDS011;25829;50.228;18.936;2023-07-20T01:54:50;5.70;;;2.78;;
40116;SDS011;25829;50.228;18.936;2023-07-20T01:57:52;4.25;;;2.78;;
40116;SDS011;25829;50.228;18.936;2023-07-20T02:00:53;3.60;;;3.10;;
40116;SDS011;25829;50.228;18.936;2023-07-20T02:03:54;3.92;;;2.97;;
40116;SDS011;25829;50.228;18.936;2023-07-20T02:06:55;8.90;;;2.95;;
40116;SDS011;25829;50.228;18.936;2023-07-20T02:09:57;4.40;;;3.28;;
40116;SDS011;25829;50.228;18.936;2023-07-20T02:12:58;6.25;;;2.80;;
40116;SDS011;25829;50.228;18.936;2023-07-20T02:15:59;7.38;;;3.20;;
40116;SDS011;25829;50.228;18.936;2023-07-20T02:18:59;6.20;;;3.13;;
40116;SDS011;25829;50.228;18.936;2023-07-20T02:22:00;3.28;;;2.97;;
40116;SDS011;25829;50.228;18.936;2023-07-20T02:25:01;3.97;;;3.13;;
40116;SDS011;25829;50.228;18.936;2023-07-20T02:28:01;4.72;;;2.90;;
40116;SDS011;25829;50.228;18.936;2023-07-20T02:31:04;4.97;;;2.83;;
40116;SDS011;25829;50.228;18.936;2023-07-20T02:34:07;8.38;;;3.28;;
40116;SDS011;25829;50.228;18.936;2023-07-20T02:37:09;4.05;;;2.60;;
40116;SDS011;25829;50.228;18.936;2023-07-20T02:40:11;4.78;;;3.10;;
40116;SDS011;25829;50.228;18.936;2023-07-20T02:43:12;4.75;;;2.50;;
40116;SDS011;25829;50.228;18.936;2023-07-20T02:46:12;2.70;;;2.45;;
40116;SDS011;25829;50.228;18.936;2023-07-20T02:49:13;10.27;;;3.08;;
40116;SDS011;25829;50.228;18.936;2023-07-20T02:52:14;5.55;;;3.03;;
40116;SDS011;25829;50.228;18.936;2023-07-20T02:55:15;5.03;;;3.30;;
40116;SDS011;25829;50.228;18.936;2023-07-20T02:58:16;3.25;;;2.72;;
40116;SDS011;25829;50.228;18.936;2023-07-20T03:01:17;4.80;;;3.03;;
40116;SDS011;25829;50.228;18.936;2023-07-20T03:04:17;5.50;;;3.22;;
40116;SDS011;25829;50.228;18.936;2023-07-20T03:07:18;4.38;;;2.60;;
40116;SDS011;25829;50.228;18.936;2023-07-20T03:10:19;2.85;;;2.03;;
40116;SDS011;25829;50.228;18.936;2023-07-20T03:13:19;4.50;;;2.58;;
40116;SDS011;25829;50.228;18.936;2023-07-20T03:16:20;5.32;;;3.05;;
40116;SDS011;25829;50.228;18.936;2023-07-20T03:19:22;3.75;;;2.60;;
40116;SDS011;25829;50.228;18.936;2023-07-20T03:22:23;4.65;;;2.65;;
40116;SDS011;25829;50.228;18.936;2023-07-20T03:25:24;3.58;;;2.85;;
40116;SDS011;25829;50.228;18.936;2023-07-20T03:28:25;6.25;;;2.88;;
40116;SDS011;25829;50.228;18.936;2023-07-20T03:31:26;3.95;;;2.80;;
40116;SDS011;25829;50.228;18.936;2023-07-20T03:34:27;4.47;;;2.78;;
40116;SDS011;25829;50.228;18.936;2023-07-20T03:37:27;4.72;;;2.38;;
40116;SDS011;25829;50.228;18.936;2023-07-20T03:40:28;3.35;;;2.42;;
40116;SDS011;25829;50.228;18.936;2023-07-20T03:43:29;3.72;;;2.70;;
40116;SDS011;25829;50.228;18.936;2023-07-20T03:46:30;6.50;;;2.65;;
40116;SDS011;25829;50.228;18.936;2023-07-20T03:49:31;4.45;;;3.67;;
40116;SDS011;25829;50.228;18.936;2023-07-20T03:52:32;4.97;;;3.05;;
40116;SDS011;25829;50.228;18.936;2023-07-20T03:55:33;4.85;;;2.83;;
40116;SDS011;25829;50.228;18.936;2023-07-20T03:58:34;4.45;;;3.20;;
40116;SDS011;25829;50.228;18.936;2023-07-20T04:01:34;3.58;;;2.80;;
40116;SDS011;25829;50.228;18.936;2023-07-20T04:04:37;2.50;;;2.28;;
40116;SDS011;25829;50.228;18.936;2023-07-20T04:07:38;3.55;;;2.20;;
40116;SDS011;25829;50.228;18.936;2023-07-20T04:10:38;3.38;;;2.17;;
40116;SDS011;25829;50.228;18.936;2023-07-20T04:13:40;3.65;;;2.28;;
40116;SDS011;25829;50.228;18.936;2023-07-20T04:16:40;4.47;;;2.42;;
40116;SDS011;25829;50.228;18.936;2023-07-20T04:19:41;2.72;;;2.33;;
40116;SDS011;25829;50.228;18.936;2023-07-20T04:22:43;5.32;;;2.83;;
40116;SDS011;25829;50.228;18.936;2023-07-20T04:25:47;4.95;;;2.95;;
40116;SDS011;25829;50.228;18.936;2023-07-20T04:28:48;5.70;;;2.63;;
40116;SDS011;25829;50.228;18.936;2023-07-20T04:32:01;3.30;;;2.38;;
40116;SDS011;25829;50.228;18.936;2023-07-20T04:35:06;6.82;;;2.75;;
40116;SDS011;25829;50.228;18.936;2023-07-20T04:38:14;4.38;;;2.78;;
40116;SDS011;25829;50.228;18.936;2023-07-20T04:41:19;10.20;;;2.85;;
40116;SDS011;25829;50.228;18.936;2023-07-20T04:44:22;3.47;;;2.60;;
40116;SDS011;25829;50.228;18.936;2023-07-20T04:47:23;5.82;;;2.40;;
40116;SDS011;25829;50.228;18.936;2023-07-20T04:50:25;2.75;;;2.42;;
40116;SDS011;25829;50.228;18.936;2023-07-20T04:53:26;5.38;;;2.75;;
40116;SDS011;25829;50.228;18.936;2023-07-20T04:56:28;5.03;;;2.90;;
40116;SDS011;25829;50.228;18.936;2023-07-20T04:59:31;5.07;;;2.70;;
40116;SDS011;25829;50.228;18.936;2023-07-20T05:02:33;7.43;;;3.00;;
40116;SDS011;25829;50.228;18.936;2023-07-20T05:05:34;4.72;;;2.90;;
40116;SDS011;25829;50.228;18.936;2023-07-20T05:08:35;4.32;;;2.47;;
40116;SDS011;25829;50.228;18.936;2023-07-20T05:11:36;3.67;;;2.70;;
40116;SDS011;25829;50.228;18.936;2023-07-20T05:14:37;5.60;;;3.28;;
40116;SDS011;25829;50.228;18.936;2023-07-20T05:17:38;4.80;;;2.80;;
40116;SDS011;25829;50.228;18.936;2023-07-20T05:20:40;3.92;;;2.83;;
40116;SDS011;25829;50.228;18.936;2023-07-20T05:23:41;5.05;;;3.03;;
40116;SDS011;25829;50.228;18.936;2023-07-20T05:26:42;5.00;;;3.00;;
40116;SDS011;25829;50.228;18.936;2023-07-20T05:29:46;4.18;;;2.50;;
40116;SDS011;25829;50.228;18.936;2023-07-20T05:32:46;3.25;;;2.72;;
40116;SDS011;25829;50.228;18.936;2023-07-20T05:35:51;4.07;;;3.00;;
40116;SDS011;25829;50.228;18.936;2023-07-20T05:38:52;3.47;;;2.85;;
40116;SDS011;25829;50.228;18.936;2023-07-20T05:41:52;3.50;;;2.80;;
40116;SDS011;25829;50.228;18.936;2023-07-20T05:44:53;4.25;;;2.90;;
40116;SDS011;25829;50.228;18.936;2023-07-20T05:47:55;2.58;;;2.38;;
40116;SDS011;25829;50.228;18.936;2023-07-20T05:50:56;2.42;;;2.17;;
40116;SDS011;25829;50.228;18.936;2023-07-20T05:53:57;4.82;;;2.30;;
40116;SDS011;25829;50.228;18.936;2023-07-20T05:56:57;2.80;;;2.47;;
40116;SDS011;25829;50.228;18.936;2023-07-20T06:00:01;3.35;;;2.63;;
40116;SDS011;25829;50.228;18.936;2023-07-20T06:03:12;3.30;;;2.88;;
40116;SDS011;25829;50.228;18.936;2023-07-20T06:06:18;2.60;;;2.40;;
40116;SDS011;25829;50.228;18.936;2023-07-20T06:09:30;2.45;;;2.13;;
40116;SDS011;25829;50.228;18.936;2023-07-20T06:12:31;2.50;;;2.30;;
40116;SDS011;25829;50.228;18.936;2023-07-20T06:15:33;2.38;;;2.10;;
40116;SDS011;25829;50.228;18.936;2023-07-20T06:18:37;3.58;;;2.30;;
40116;SDS011;25829;50.228;18.936;2023-07-20T06:21:38;3.50;;;2.00;;
40116;SDS011;25829;50.228;18.936;2023-07-20T06:24:39;2.75;;;1.80;;
40116;SDS011;25829;50.228;18.936;2023-07-20T06:27:41;3.22;;;2.10;;
40116;SDS011;25829;50.228;18.936;2023-07-20T06:30:42;2.88;;;2.20;;
40116;SDS011;25829;50.228;18.936;2023-07-20T06:33:47;3.17;;;2.63;;
40116;SDS011;25829;50.228;18.936;2023-07-20T06:36:47;3.08;;;2.33;;
40116;SDS011;25829;50.228;18.936;2023-07-20T06:39:48;3.63;;;2.20;;
40116;SDS011;25829;50.228;18.936;2023-07-20T06:42:49;3.30;;;2.40;;
40116;SDS011;25829;50.228;18.936;2023-07-20T06:45:55;1.85;;;1.73;;
40116;SDS011;25829;50.228;18.936;2023-07-20T06:48:56;3.53;;;2.08;;
40116;SDS011;25829;50.228;18.936;2023-07-20T06:51:57;3.00;;;2.13;;
40116;SDS011;25829;50.228;18.936;2023-07-20T06:54:58;3.83;;;1.90;;
40116;SDS011;25829;50.228;18.936;2023-07-20T06:57:58;3.25;;;1.98;;
40116;SDS011;25829;50.228;18.936;2023-07-20T07:00:59;2.80;;;1.90;;
40116;SDS011;25829;50.228;18.936;2023-07-20T07:04:00;2.40;;;1.50;;
40116;SDS011;25829;50.228;18.936;2023-07-20T07:07:05;1.98;;;1.80;;
40116;SDS011;25829;50.228;18.936;2023-07-20T07:10:06;1.73;;;1.60;;
40116;SDS011;25829;50.228;18.936;2023-07-20T07:13:08;2.22;;;1.50;;
40116;SDS011;25829;50.228;18.936;2023-07-20T07:25:00;2.42;;;1.00;;
40116;SDS011;25829;50.228;18.936;2023-07-20T07:28:03;1.63;;;1.52;;
40116;SDS011;25829;50.228;18.936;2023-07-20T07:31:09;1.52;;;1.40;;
40116;SDS011;25829;50.228;18.936;2023-07-20T07:34:10;2.17;;;1.35;;
40116;SDS011;25829;50.228;18.936;2023-07-20T07:37:11;1.60;;;1.50;;
40116;SDS011;25829;50.228;18.936;2023-07-20T07:40:12;2.92;;;1.38;;
40116;SDS011;25829;50.228;18.936;2023-07-20T07:43:13;1.40;;;1.30;;
40116;SDS011;25829;50.228;18.936;2023-07-20T07:46:14;1.42;;;1.33;;
40116;SDS011;25829;50.228;18.936;2023-07-20T07:49:30;1.58;;;1.30;;
40116;SDS011;25829;50.228;18.936;2023-07-20T07:52:34;1.55;;;1.30;;
40116;SDS011;25829;50.228;18.936;2023-07-20T07:55:35;1.88;;;1.38;;
40116;SDS011;25829;50.228;18.936;2023-07-20T07:58:39;3.05;;;1.52;;
40116;SDS011;25829;50.228;18.936;2023-07-20T08:01:40;1.90;;;1.20;;
40116;SDS011;25829;50.228;18.936;2023-07-20T08:04:41;4.93;;;1.60;;
40116;SDS011;25829;50.228;18.936;2023-07-20T08:07:42;2.25;;;1.40;;
40116;SDS011;25829;50.228;18.936;2023-07-20T08:10:43;1.38;;;1.27;;
40116;SDS011;25829;50.228;18.936;2023-07-20T08:13:44;1.98;;;1.33;;
40116;SDS011;25829;50.228;18.936;2023-07-20T08:16:45;1.88;;;1.40;;
40116;SDS011;25829;50.228;18.936;2023-07-20T08:19:46;1.85;;;1.40;;
40116;SDS011;25829;50.228;18.936;2023-07-20T08:22:47;2.65;;;1.77;;
40116;SDS011;25829;50.228;18.936;2023-07-20T08:25:48;2.88;;;1.48;;
40116;SDS011;25829;50.228;18.936;2023-07-20T08:28:48;1.90;;;1.60;;
40116;SDS011;25829;50.228;18.936;2023-07-20T08:31:52;1.95;;;1.77;;
40116;SDS011;25829;50.228;18.936;2023-07-20T08:34:59;5.70;;;3.10;;
40116;SDS011;25829;50.228;18.936;2023-07-20T08:38:02;3.13;;;2.60;;
40116;SDS011;25829;50.228;18.936;2023-07-20T08:41:04;3.85;;;2.63;;
40116;SDS011;25829;50.228;18.936;2023-07-20T08:44:08;3.00;;;2.70;;
40116;SDS011;25829;50.228;18.936;2023-07-20T08:47:10;7.10;;;3.28;;
40116;SDS011;25829;50.228;18.936;2023-07-20T08:50:14;2.95;;;2.63;;
40116;SDS011;25829;50.228;18.936;2023-07-20T08:53:20;5.25;;;2.55;;
40116;SDS011;25829;50.228;18.936;2023-07-20T08:56:21;5.47;;;3.15;;
40116;SDS011;25829;50.228;18.936;2023-07-20T08:59:25;6.97;;;3.08;;
40116;SDS011;25829;50.228;18.936;2023-07-20T09:06:11;10.38;;;5.88;;
40116;SDS011;25829;50.228;18.936;2023-07-20T09:09:12;5.10;;;3.58;;
40116;SDS011;25829;50.228;18.936;2023-07-20T09:12:13;8.52;;;5.07;;
40116;SDS011;25829;50.228;18.936;2023-07-20T09:15:17;5.90;;;3.40;;
40116;SDS011;25829;50.228;18.936;2023-07-20T09:18:23;4.28;;;3.80;;
40116;SDS011;25829;50.228;18.936;2023-07-20T09:21:28;10.02;;;5.47;;
40116;SDS011;25829;50.228;18.936;2023-07-20T09:24:31;4.47;;;3.63;;
40116;SDS011;25829;50.228;18.936;2023-07-20T09:27:39;6.68;;;4.10;;
40116;SDS011;25829;50.228;18.936;2023-07-20T09:30:41;5.57;;;4.07;;
40116;SDS011;25829;50.228;18.936;2023-07-20T09:33:42;4.97;;;3.80;;
40116;SDS011;25829;50.228;18.936;2023-07-20T09:36:51;5.20;;;3.80;;
40116;SDS011;25829;50.228;18.936;2023-07-20T09:40:03;4.50;;;3.60;;
40116;SDS011;25829;50.228;18.936;2023-07-20T09:43:07;3.85;;;3.42;;
40116;SDS011;25829;50.228;18.936;2023-07-20T09:46:20;3.60;;;3.25;;
40116;SDS011;25829;50.228;18.936;2023-07-20T09:49:25;4.63;;;3.58;;
40116;SDS011;25829;50.228;18.936;2023-07-20T09:52:26;4.25;;;3.80;;
40116;SDS011;25829;50.228;18.936;2023-07-20T09:55:29;5.50;;;3.83;;
40116;SDS011;25829;50.228;18.936;2023-07-20T09:58:31;6.80;;;3.88;;
40116;SDS011;25829;50.228;18.936;2023-07-20T10:01:34;10.57;;;9.02;;
40116;SDS011;25829;50.228;18.936;2023-07-20T10:04:35;4.32;;;3.92;;
40116;SDS011;25829;50.228;18.936;2023-07-20T10:07:40;6.72;;;4.60;;
40116;SDS011;25829;50.228;18.936;2023-07-20T10:10:48;9.13;;;4.28;;
40116;SDS011;25829;50.228;18.936;2023-07-20T10:13:51;6.40;;;4.90;;
40116;SDS011;25829;50.228;18.936;2023-07-20T10:17:00;7.47;;;4.75;;
40116;SDS011;25829;50.228;18.936;2023-07-20T10:20:02;6.68;;;4.72;;
40116;SDS011;25829;50.228;18.936;2023-07-20T10:23:10;7.32;;;4.47;;
40116;SDS011;25829;50.228;18.936;2023-07-20T10:26:12;8.10;;;4.43;;
40116;SDS011;25829;50.228;18.936;2023-07-20T10:29:14;7.90;;;4.47;;
40116;SDS011;25829;50.228;18.936;2023-07-20T10:32:15;4.55;;;4.15;;
40116;SDS011;25829;50.228;18.936;2023-07-20T10:35:17;6.10;;;4.13;;
40116;SDS011;25829;50.228;18.936;2023-07-20T10:41:41;4.15;;;3.47;;
40116;SDS011;25829;50.228;18.936;2023-07-20T10:44:44;5.15;;;3.97;;
40116;SDS011;25829;50.228;18.936;2023-07-20T10:47:46;3.50;;;3.20;;
40116;SDS011;25829;50.228;18.936;2023-07-20T10:57:30;4.80;;;2.40;;
40116;SDS011;25829;50.228;18.936;2023-07-20T11:00:31;2.90;;;2.53;;
40116;SDS011;25829;50.228;18.936;2023-07-20T11:03:33;2.00;;;1.85;;
40116;SDS011;25829;50.228;18.936;2023-07-20T11:06:42;3.72;;;2.30;;
40116;SDS011;25829;50.228;18.936;2023-07-20T11:09:46;2.85;;;2.13;;
40116;SDS011;25829;50.228;18.936;2023-07-20T11:16:44;4.75;;;2.85;;
40116;SDS011;25829;50.228;18.936;2023-07-20T11:19:47;2.17;;;2.00;;
40116;SDS011;25829;50.228;18.936;2023-07-20T11:22:54;2.80;;;2.40;;
40116;SDS011;25829;50.228;18.936;2023-07-20T11:25:55;2.55;;;2.10;;
40116;SDS011;25829;50.228;18.936;2023-07-20T11:28:56;2.53;;;1.90;;
40116;SDS011;25829;50.228;18.936;2023-07-20T11:31:58;3.75;;;2.20;;
40116;SDS011;25829;50.228;18.936;2023-07-20T11:34:59;3.55;;;2.50;;
40116;SDS011;25829;50.228;18.936;2023-07-20T11:41:24;3.20;;;2.30;;
40116;SDS011;25829;50.228;18.936;2023-07-20T11:44:38;3.80;;;2.20;;
40116;SDS011;25829;50.228;18.936;2023-07-20T11:47:42;3.17;;;2.00;;
40116;SDS011;25829;50.228;18.936;2023-07-20T11:50:42;3.08;;;2.10;;
40116;SDS011;25829;50.228;18.936;2023-07-20T11:53:44;5.57;;;2.42;;
40116;SDS011;25829;50.228;18.936;2023-07-20T11:56:46;3.22;;;2.10;;
40116;SDS011;25829;50.228;18.936;2023-07-20T11:59:57;7.28;;;2.25;;
40116;SDS011;25829;50.228;18.936;2023-07-20T12:03:16;4.72;;;2.03;;
40116;SDS011;25829;50.228;18.936;2023-07-20T12:06:27;4.85;;;2.25;;
40116;SDS011;25829;50.228;18.936;2023-07-20T12:09:28;2.40;;;2.20;;
40116;SDS011;25829;50.228;18.936;2023-07-20T12:12:43;3.90;;;2.28;;
40116;SDS011;25829;50.228;18.936;2023-07-20T12:19:27;3.05;;;2.17;;
40116;SDS011;25829;50.228;18.936;2023-07-20T12:43:42;3.22;;;2.20;;
40116;SDS011;25829;50.228;18.936;2023-07-20T12:46:47;2.30;;;2.10;;
40116;SDS011;25829;50.228;18.936;2023-07-20T12:50:10;2.20;;;2.00;;
40116;SDS011;25829;50.228;18.936;2023-07-20T12:53:12;3.90;;;2.30;;
40116;SDS011;25829;50.228;18.936;2023-07-20T12:56:19;6.13;;;3.00;;
40116;SDS011;25829;50.228;18.936;2023-07-20T12:59:22;4.40;;;2.42;;
40116;SDS011;25829;50.228;18.936;2023-07-20T13:02:26;3.22;;;2.35;;
40116;SDS011;25829;50.228;18.936;2023-07-20T13:05:33;2.58;;;2.10;;
40116;SDS011;25829;50.228;18.936;2023-07-20T13:08:35;2.10;;;1.90;;
40116;SDS011;25829;50.228;18.936;2023-07-20T13:11:41;4.40;;;1.98;;
40116;SDS011;25829;50.228;18.936;2023-07-20T13:14:47;3.75;;;1.92;;
40116;SDS011;25829;50.228;18.936;2023-07-20T13:17:48;2.55;;;1.98;;
40116;SDS011;25829;50.228;18.936;2023-07-20T13:20:56;2.08;;;1.85;;
40116;SDS011;25829;50.228;18.936;2023-07-20T13:23:59;3.47;;;2.22;;
40116;SDS011;25829;50.228;18.936;2023-07-20T13:27:00;3.20;;;2.45;;
40116;SDS011;25829;50.228;18.936;2023-07-20T13:30:07;3.28;;;2.30;;
40116;SDS011;25829;50.228;18.936;2023-07-20T13:44:38;1.92;;;1.70;;
40116;SDS011;25829;50.228;18.936;2023-07-20T13:47:41;3.15;;;1.70;;
40116;SDS011;25829;50.228;18.936;2023-07-20T13:50:42;5.60;;;2.00;;
40116;SDS011;25829;50.228;18.936;2023-07-20T13:53:45;2.92;;;1.85;;
40116;SDS011;25829;50.228;18.936;2023-07-20T13:56:52;2.03;;;1.70;;
40116;SDS011;25829;50.228;18.936;2023-07-20T13:59:53;2.70;;;1.70;;
40116;SDS011;25829;50.228;18.936;2023-07-20T14:02:54;2.85;;;2.13;;
40116;SDS011;25829;50.228;18.936;2023-07-20T14:06:04;3.83;;;1.85;;
40116;SDS011;25829;50.228;18.936;2023-07-20T14:09:04;2.58;;;2.10;;
40116;SDS011;25829;50.228;18.936;2023-07-20T14:12:20;1.80;;;1.70;;
40116;SDS011;25829;50.228;18.936;2023-07-20T14:15:21;3.28;;;2.10;;
40116;SDS011;25829;50.228;18.936;2023-07-20T14:18:22;7.15;;;2.30;;
40116;SDS011;25829;50.228;18.936;2023-07-20T14:21:22;3.22;;;2.15;;
40116;SDS011;25829;50.228;18.936;2023-07-20T14:24:23;3.38;;;1.80;;
40116;SDS011;25829;50.228;18.936;2023-07-20T14:27:24;8.45;;;2.63;;
40116;SDS011;25829;50.228;18.936;2023-07-20T14:30:25;2.50;;;1.98;;
40116;SDS011;25829;50.228;18.936;2023-07-20T14:33:26;3.13;;;1.90;;
40116;SDS011;25829;50.228;18.936;2023-07-20T14:36:27;4.00;;;1.92;;
40116;SDS011;25829;50.228;18.936;2023-07-20T14:39:29;3.15;;;1.83;;
40116;SDS011;25829;50.228;18.936;2023-07-20T14:42:30;3.53;;;1.83;;
40116;SDS011;25829;50.228;18.936;2023-07-20T14:45:39;4.72;;;1.90;;
40116;SDS011;25829;50.228;18.936;2023-07-20T14:48:41;3.60;;;2.00;;
40116;SDS011;25829;50.228;18.936;2023-07-20T14:51:52;2.47;;;1.90;;
40116;SDS011;25829;50.228;18.936;2023-07-20T14:54:53;3.20;;;1.60;;
40116;SDS011;25829;50.228;18.936;2023-07-20T14:57:54;3.92;;;1.80;;
40116;SDS011;25829;50.228;18.936;2023-07-20T15:00:55;3.47;;;1.75;;
40116;SDS011;25829;50.228;18.936;2023-07-20T15:03:56;2.67;;;1.90;;
40116;SDS011;25829;50.228;18.936;2023-07-20T15:06:56;2.85;;;1.80;;
40116;SDS011;25829;50.228;18.936;2023-07-20T15:09:57;5.10;;;1.60;;
40116;SDS011;25829;50.228;18.936;2023-07-20T15:12:58;2.13;;;1.92;;
40116;SDS011;25829;50.228;18.936;2023-07-20T15:16:04;2.63;;;1.90;;
40116;SDS011;25829;50.228;18.936;2023-07-20T15:19:08;2.17;;;1.98;;
40116;SDS011;25829;50.228;18.936;2023-07-20T15:22:09;4.47;;;1.65;;
40116;SDS011;25829;50.228;18.936;2023-07-20T15:25:13;2.22;;;1.70;;
40116;SDS011;25829;50.228;18.936;2023-07-20T15:28:17;2.40;;;1.80;;
40116;SDS011;25829;50.228;18.936;2023-07-20T15:31:24;2.60;;;1.70;;
40116;SDS011;25829;50.228;18.936;2023-07-20T15:34:42;1.98;;;1.80;;
40116;SDS011;25829;50.228;18.936;2023-07-20T15:37:44;1.98;;;1.63;;
40116;SDS011;25829;50.228;18.936;2023-07-20T15:40:54;3.65;;;1.92;;
40116;SDS011;25829;50.228;18.936;2023-07-20T15:43:56;4.13;;;1.58;;
40116;SDS011;25829;50.228;18.936;2023-07-20T15:46:58;2.22;;;1.48;;
40116;SDS011;25829;50.228;18.936;2023-07-20T15:49:58;3.05;;;1.70;;
40116;SDS011;25829;50.228;18.936;2023-07-20T15:53:04;2.67;;;2.10;;
40116;SDS011;25829;50.228;18.936;2023-07-20T15:59:10;3.38;;;1.50;;
40116;SDS011;25829;50.228;18.936;2023-07-20T16:02:12;4.28;;;1.92;;
40116;SDS011;25829;50.228;18.936;2023-07-20T16:05:13;1.83;;;1.70;;
40116;SDS011;25829;50.228;18.936;2023-07-20T16:08:14;1.92;;;1.67;;
40116;SDS011;25829;50.228;18.936;2023-07-20T16:11:18;2.05;;;1.55;;
40116;SDS011;25829;50.228;18.936;2023-07-20T16:14:24;2.42;;;1.60;;
40116;SDS011;25829;50.228;18.936;2023-07-20T16:17:25;2.67;;;1.63;;
40116;SDS011;25829;50.228;18.936;2023-07-20T16:20:35;1.88;;;1.55;;
40116;SDS011;25829;50.228;18.936;2023-07-20T16:23:38;1.67;;;1.58;;
40116;SDS011;25829;50.228;18.936;2023-07-20T16:34:55;2.15;;;1.63;;
40116;SDS011;25829;50.228;18.936;2023-07-20T16:37:56;7.35;;;1.63;;
40116;SDS011;25829;50.228;18.936;2023-07-20T16:41:05;1.73;;;1.63;;
40116;SDS011;25829;50.228;18.936;2023-07-20T16:44:07;3.00;;;1.90;;
40116;SDS011;25829;50.228;18.936;2023-07-20T16:47:20;1.70;;;1.60;;
40116;SDS011;25829;50.228;18.936;2023-07-20T16:50:24;2.30;;;1.88;;
40116;SDS011;25829;50.228;18.936;2023-07-20T16:53:38;3.65;;;1.83;;
40116;SDS011;25829;50.228;18.936;2023-07-20T16:56:39;2.22;;;2.05;;
40116;SDS011;25829;50.228;18.936;2023-07-20T16:59:58;3.15;;;1.83;;
40116;SDS011;25829;50.228;18.936;2023-07-20T17:02:59;6.68;;;1.80;;
40116;SDS011;25829;50.228;18.936;2023-07-20T17:06:03;6.93;;;1.73;;
40116;SDS011;25829;50.228;18.936;2023-07-20T17:09:05;1.75;;;1.65;;
40116;SDS011;25829;50.228;18.936;2023-07-20T17:12:06;3.33;;;1.60;;
40116;SDS011;25829;50.228;18.936;2023-07-20T17:15:23;3.45;;;1.90;;
40116;SDS011;25829;50.228;18.936;2023-07-20T17:18:32;1.80;;;1.70;;
40116;SDS011;25829;50.228;18.936;2023-07-20T17:21:33;1.75;;;1.52;;
40116;SDS011;25829;50.228;18.936;2023-07-20T17:24:44;1.70;;;1.60;;
40116;SDS011;25829;50.228;18.936;2023-07-20T17:27:45;2.00;;;1.90;;
40116;SDS011;25829;50.228;18.936;2023-07-20T17:30:48;1.60;;;1.50;;
40116;SDS011;25829;50.228;18.936;2023-07-20T17:34:03;1.70;;;1.60;;
40116;SDS011;25829;50.228;18.936;2023-07-20T17:41:17;3.20;;;1.65;;
40116;SDS011;25829;50.228;18.936;2023-07-20T17:44:24;1.85;;;1.60;;
40116;SDS011;25829;50.228;18.936;2023-07-20T17:47:24;1.83;;;1.73;;
40116;SDS011;25829;50.228;18.936;2023-07-20T17:50:25;1.88;;;1.70;;
40116;SDS011;25829;50.228;18.936;2023-07-20T17:53:32;1.65;;;1.50;;
40116;SDS011;25829;50.228;18.936;2023-07-20T17:56:33;3.20;;;1.75;;
40116;SDS011;25829;50.228;18.936;2023-07-20T17:59:35;1.55;;;1.45;;
40116;SDS011;25829;50.228;18.936;2023-07-20T18:02:44;1.70;;;1.60;;
40116;SDS011;25829;50.228;18.936;2023-07-20T18:05:44;1.95;;;1.50;;
40116;SDS011;25829;50.228;18.936;2023-07-20T18:08:55;1.95;;;1.40;;
40116;SDS011;25829;50.228;18.936;2023-07-20T18:12:10;1.67;;;1.58;;
40116;SDS011;25829;50.228;18.936;2023-07-20T18:15:26;1.65;;;1.55;;
40116;SDS011;25829;50.228;18.936;2023-07-20T18:18:26;1.58;;;1.48;;
40116;SDS011;25829;50.228;18.936;2023-07-20T18:21:37;3.67;;;1.70;;
40116;SDS011;25829;50.228;18.936;2023-07-20T18:24:38;2.70;;;1.73;;
40116;SDS011;25829;50.228;18.936;2023-07-20T18:27:47;3.05;;;1.63;;
40116;SDS011;25829;50.228;18.936;2023-07-20T18:30:50;2.55;;;1.60;;
40116;SDS011;25829;50.228;18.936;2023-07-20T18:33:56;1.85;;;1.75;;
40116;SDS011;25829;50.228;18.936;2023-07-20T18:52:59;3.92;;;2.03;;
40116;SDS011;25829;50.228;18.936;2023-07-20T18:59:25;2.42;;;2.03;;
40116;SDS011;25829;50.228;18.936;2023-07-20T19:02:26;3.17;;;1.98;;
40116;SDS011;25829;50.228;18.936;2023-07-20T19:05:27;2.40;;;2.20;;
40116;SDS011;25829;50.228;18.936;2023-07-20T19:08:37;2.15;;;2.00;;
40116;SDS011;25829;50.228;18.936;2023-07-20T19:11:38;5.45;;;2.25;;
40116;SDS011;25829;50.228;18.936;2023-07-20T19:14:42;2.58;;;2.28;;
40116;SDS011;25829;50.228;18.936;2023-07-20T19:17:42;1.90;;;1.80;;
40116;SDS011;25829;50.228;18.936;2023-07-20T19:20:46;2.75;;;2.00;;
40116;SDS011;25829;50.228;18.936;2023-07-20T19:23:50;5.43;;;3.05;;
40116;SDS011;25829;50.228;18.936;2023-07-20T19:30:10;2.72;;;2.10;;
40116;SDS011;25829;50.228;18.936;2023-07-20T19:33:12;5.35;;;2.08;;
40116;SDS011;25829;50.228;18.936;2023-07-20T19:36:12;5.88;;;2.22;;
40116;SDS011;25829;50.228;18.936;2023-07-20T19:42:28;2.92;;;2.20;;
40116;SDS011;25829;50.228;18.936;2023-07-20T19:45:35;2.03;;;1.92;;
40116;SDS011;25829;50.228;18.936;2023-07-20T19:48:36;2.03;;;1.92;;
40116;SDS011;25829;50.228;18.936;2023-07-20T19:51:40;3.85;;;2.38;;
40116;SDS011;25829;50.228;18.936;2023-07-20T20:03:09;3.67;;;2.00;;
40116;SDS011;25829;50.228;18.936;2023-07-20T20:06:10;4.28;;;2.25;;
40116;SDS011;25829;50.228;18.936;2023-07-20T20:09:11;2.20;;;2.00;;
40116;SDS011;25829;50.228;18.936;2023-07-20T20:12:11;3.60;;;1.80;;